Time;durP1;ratioP1;P1;durP2;ratioP2;P2;SDS_P1;SDS_P2;PMS_P1;PMS_P2;Temp;Humidity;BMP_temperature;BMP_pressure;BME280_temperature;BME280_humidity;BME280_pressure;Samples;Min_cycle;Max_cycle;Signal;HPM_P1;HPM_P2
2022/11/18 00:01:55;;;;;;;40.42;18.55;;;7.20;99.90;;;;;;4988894;28;20537;-88
2022/11/18 00:04:21;;;;;;;40.97;18.42;;;7.20;99.90;;;;;;4987834;28;20067;-88
2022/11/18 00:06:47;;;;;;;47.80;20.75;;;7.20;99.90;;;;;;4987553;28;20033;-88
2022/11/18 00:09:12;;;;;;;49.13;20.42;;;7.20;99.90;;;;;;4988586;28;20038;-88
2022/11/18 00:14:26;;;;;;;35.63;19.05;;;7.10;99.90;;;;;;4997965;28;20027;-88
2022/11/18 00:16:53;;;;;;;50.75;22.48;;;7.10;99.90;;;;;;4976049;28;20035;-88
2022/11/18 00:19:22;;;;;;;43.20;17.20;;;7.10;99.90;;;;;;4999763;28;20394;-88
2022/11/18 00:21:48;;;;;;;37.65;18.50;;;7.10;99.90;;;;;;4986343;28;20030;-88
2022/11/18 00:24:14;;;;;;;41.88;17.77;;;7.10;99.90;;;;;;4975096;28;20451;-87
2022/11/18 00:26:40;;;;;;;41.83;17.60;;;7.10;99.90;;;;;;4979424;28;20063;-88
2022/11/18 00:29:07;;;;;;;41.78;16.45;;;7.20;99.90;;;;;;4988379;28;20022;-88
2022/11/18 00:31:34;;;;;;;42.30;15.82;;;7.10;99.90;;;;;;4999999;28;20117;-88
2022/11/18 00:33:59;;;;;;;42.90;16.05;;;7.20;99.90;;;;;;4988477;28;20393;-88
2022/11/18 00:36:25;;;;;;;34.50;13.90;;;7.10;99.90;;;;;;4987483;28;20031;-88
2022/11/18 00:38:51;;;;;;;36.88;14.88;;;7.20;99.90;;;;;;4987632;28;21044;-88
2022/11/18 00:41:16;;;;;;;42.30;15.50;;;7.20;99.90;;;;;;4987549;28;20427;-89
2022/11/18 00:43:42;;;;;;;39.40;14.45;;;7.20;99.90;;;;;;4986602;28;20034;-88
2022/11/18 00:46:10;;;;;;;34.85;14.65;;;7.10;99.90;;;;;;4988291;28;20045;-89
2022/11/18 00:48:54;;;;;;;29.58;12.98;;;7.20;99.90;;;;;;4992466;28;20077;-88
2022/11/18 00:51:19;;;;;;;29.83;13.15;;;7.20;99.90;;;;;;4972653;28;20104;-89
2022/11/18 00:54:01;;;;;;;39.80;13.77;;;7.20;99.90;;;;;;4986418;28;20053;-89
2022/11/18 00:56:27;;;;;;;35.13;14.23;;;7.20;99.90;;;;;;5003322;28;20034;-88
2022/11/18 00:58:52;;;;;;;32.42;14.48;;;7.20;99.90;;;;;;4987383;28;20030;-88
2022/11/18 01:01:18;;;;;;;33.17;14.68;;;7.20;99.90;;;;;;4987963;28;20041;-88
2022/11/18 01:03:45;;;;;;;36.40;14.18;;;7.20;99.90;;;;;;4987185;28;20031;-88
2022/11/18 01:06:10;;;;;;;30.85;13.98;;;7.20;99.90;;;;;;4987777;28;20030;-89
2022/11/18 01:08:36;;;;;;;37.17;16.23;;;7.20;99.90;;;;;;4985246;28;20033;-88
2022/11/18 01:13:50;;;;;;;33.80;14.45;;;7.20;99.90;;;;;;4987596;28;20039;-89
2022/11/18 01:16:20;;;;;;;34.30;14.65;;;7.20;99.90;;;;;;5003485;28;20036;-88
2022/11/18 01:18:46;;;;;;;33.58;13.90;;;7.30;99.90;;;;;;4987010;28;20474;-89
2022/11/18 01:21:12;;;;;;;41.15;14.73;;;7.20;99.90;;;;;;4987694;28;20089;-89
2022/11/18 01:23:37;;;;;;;36.92;14.68;;;7.20;99.90;;;;;;4970486;28;20035;-88
2022/11/18 01:26:05;;;;;;;31.55;14.18;;;7.20;99.90;;;;;;4984620;28;20382;-88
2022/11/18 01:28:31;;;;;;;42.30;16.90;;;7.20;99.90;;;;;;4987541;28;20430;-88
2022/11/18 01:31:04;;;;;;;40.90;18.13;;;7.20;99.90;;;;;;4967991;28;20039;-88
2022/11/18 01:33:29;;;;;;;51.28;18.75;;;7.30;99.90;;;;;;4991473;28;20512;-88
2022/11/18 01:35:55;;;;;;;57.90;18.15;;;7.20;99.90;;;;;;4968176;28;20027;-88
2022/11/18 01:38:21;;;;;;;44.10;17.65;;;7.20;99.90;;;;;;4990069;28;20031;-88
2022/11/18 01:40:46;;;;;;;52.17;18.55;;;7.20;99.90;;;;;;4985090;28;20053;-88
2022/11/18 01:43:14;;;;;;;42.25;17.27;;;7.20;99.90;;;;;;4983995;28;20023;-88
2022/11/18 01:45:43;;;;;;;36.30;16.35;;;7.20;99.90;;;;;;4989623;28;20038;-88
2022/11/18 01:48:21;;;;;;;40.05;16.40;;;7.20;99.90;;;;;;4999966;28;20034;-88
2022/11/18 01:50:53;;;;;;;39.60;17.00;;;7.20;99.90;;;;;;4990452;28;20054;-88
2022/11/18 01:53:26;;;;;;;;;;;7.20;99.90;;;;;;4983873;28;20041;-88
2022/11/18 01:55:55;;;;;;;49.58;17.52;;;7.20;99.90;;;;;;4974628;28;20009;-89
2022/11/18 01:58:25;;;;;;;58.58;18.05;;;7.20;99.90;;;;;;4999567;28;20027;-88
2022/11/18 02:00:51;;;;;;;42.28;17.27;;;7.20;99.90;;;;;;5002291;28;20041;-88
2022/11/18 02:03:17;;;;;;;52.40;17.95;;;7.20;99.90;;;;;;4986354;28;20052;-89
2022/11/18 02:05:46;;;;;;;51.65;17.92;;;7.20;99.90;;;;;;4984922;28;20034;-89
2022/11/18 02:08:12;;;;;;;61.88;19.52;;;7.30;99.90;;;;;;5002239;28;20050;-89
2022/11/18 02:10:38;;;;;;;46.15;18.38;;;7.20;99.90;;;;;;4978006;28;20031;-88
2022/11/18 02:13:35;;;;;;;47.05;16.50;;;7.20;99.90;;;;;;4986416;28;20031;-89
2022/11/18 02:16:23;;;;;;;41.42;16.60;;;7.20;99.90;;;;;;4974449;28;20118;-89
2022/11/18 02:19:00;;;;;;;46.67;16.88;;;7.20;99.90;;;;;;4968562;28;20058;-89
2022/11/18 02:22:20;;;;;;;39.78;16.10;;;7.20;99.90;;;;;;4987131;28;20049;-89
2022/11/18 02:25:01;;;;;;;37.15;15.32;;;7.20;99.90;;;;;;4968252;28;20420;-89
2022/11/18 02:28:05;;;;;;;45.70;15.77;;;7.20;99.90;;;;;;4985320;28;20409;-89
2022/11/18 02:30:43;;;;;;;31.45;12.65;;;7.20;99.90;;;;;;4999993;28;20057;-89
2022/11/18 02:33:16;;;;;;;40.72;14.93;;;7.20;99.90;;;;;;4980997;28;20148;-89
2022/11/18 02:35:49;;;;;;;42.15;17.30;;;7.20;99.90;;;;;;4985432;28;20090;-89
2022/11/18 02:38:33;;;;;;;44.80;18.58;;;7.20;99.90;;;;;;4983059;28;20027;-89
2022/11/18 02:41:12;;;;;;;55.85;18.92;;;7.20;99.90;;;;;;4994999;28;20030;-89
2022/11/18 02:43:52;;;;;;;46.22;18.13;;;7.20;99.90;;;;;;4983843;28;20030;-88
2022/11/18 02:46:25;;;;;;;40.08;15.55;;;7.20;99.90;;;;;;4985156;28;20023;-89
2022/11/18 02:48:53;;;;;;;41.05;16.25;;;7.10;99.90;;;;;;4985084;28;20037;-88
2022/11/18 02:51:23;;;;;;;51.60;18.75;;;7.00;99.90;;;;;;4984161;28;20034;-86
2022/11/18 02:53:50;;;;;;;45.38;17.45;;;7.00;99.90;;;;;;4978210;28;20044;-88
2022/11/18 02:56:18;;;;;;;45.30;16.45;;;6.90;99.90;;;;;;4970734;28;20031;-88
2022/11/18 02:58:44;;;;;;;34.00;14.88;;;6.90;99.90;;;;;;4984165;28;20126;-88
2022/11/18 03:01:19;;;;;;;39.50;15.27;;;6.90;99.90;;;;;;4985463;28;20054;-88
2022/11/18 03:03:45;;;;;;;47.60;17.90;;;6.90;99.90;;;;;;4982555;28;20081;-87
2022/11/18 03:06:25;;;;;;;46.90;18.15;;;6.90;99.90;;;;;;4985647;28;20466;-87
2022/11/18 03:09:10;;;;;;;40.90;16.98;;;6.90;99.90;;;;;;5000153;28;20082;-87
2022/11/18 03:12:13;;;;;;;41.40;16.25;;;6.90;99.90;;;;;;5000710;28;20038;-87
2022/11/18 03:14:48;;;;;;;30.77;12.85;;;6.90;99.90;;;;;;4985735;28;20088;-88
2022/11/18 03:17:37;;;;;;;30.48;13.20;;;6.90;99.90;;;;;;4986113;28;20161;-88
2022/11/18 03:20:06;;;;;;;32.00;11.73;;;7.00;99.90;;;;;;4980988;28;20019;-87
2022/11/18 03:22:47;;;;;;;29.25;12.00;;;6.90;99.90;;;;;;4986818;28;20034;-87
2022/11/18 03:25:26;;;;;;;32.85;13.00;;;6.90;99.90;;;;;;4989209;28;20117;-87
2022/11/18 03:27:59;;;;;;;32.85;12.82;;;6.90;99.90;;;;;;4970327;28;20044;-87
2022/11/18 03:30:25;;;;;;;28.38;14.48;;;6.90;99.90;;;;;;4988956;28;20038;-86
2022/11/18 03:32:58;;;;;;;28.42;12.63;;;6.90;99.90;;;;;;4987153;28;20023;-88
2022/11/18 03:35:28;;;;;;;31.63;12.73;;;6.80;99.90;;;;;;4989061;28;20026;-87
2022/11/18 03:38:00;;;;;;;29.17;12.85;;;6.70;99.90;;;;;;4987668;28;20487;-86
2022/11/18 03:40:30;;;;;;;28.92;11.70;;;6.60;99.90;;;;;;4988589;28;20498;-87
2022/11/18 03:43:03;;;;;;;24.50;12.20;;;6.60;99.90;;;;;;5001442;28;20038;-87
2022/11/18 03:45:59;;;;;;;31.27;11.70;;;6.60;99.90;;;;;;5007290;28;20478;-87
2022/11/18 03:48:50;;;;;;;27.58;11.65;;;6.70;99.90;;;;;;4981001;28;20442;-87
2022/11/18 03:51:21;;;;;;;20.15;9.90;;;6.70;99.90;;;;;;4980396;28;20066;-87
2022/11/18 03:53:54;;;;;;;19.50;9.37;;;6.70;99.90;;;;;;5004312;28;20031;-87
2022/11/18 03:56:27;;;;;;;20.20;8.40;;;6.60;99.90;;;;;;4989974;28;20282;-87
2022/11/18 03:58:55;;;;;;;25.02;10.75;;;6.70;99.90;;;;;;4972471;28;20027;-87
2022/11/18 04:01:30;;;;;;;48.70;13.00;;;6.70;99.90;;;;;;4987625;28;20030;-87
2022/11/18 04:03:56;;;;;;;274.08;21.10;;;6.70;99.90;;;;;;4988623;28;20026;-88
2022/11/18 04:06:40;;;;;;;30.13;11.95;;;6.70;99.90;;;;;;4988619;28;20034;-87
2022/11/18 04:09:18;;;;;;;34.00;13.00;;;6.70;99.90;;;;;;5002624;28;20026;-88
2022/11/18 04:12:01;;;;;;;33.60;15.77;;;6.70;99.90;;;;;;4988046;28;20041;-88
2022/11/18 04:14:31;;;;;;;28.70;13.05;;;6.80;99.90;;;;;;4988828;28;20355;-87
2022/11/18 04:16:57;;;;;;;23.98;12.32;;;6.70;99.90;;;;;;4983446;28;20085;-87
2022/11/18 04:23:13;;;;;;;23.92;11.02;;;6.60;99.90;;;;;;4979349;28;20579;-87
2022/11/18 04:25:39;;;;;;;27.45;11.10;;;6.60;99.90;;;;;;4989207;28;20026;-87
2022/11/18 04:28:05;;;;;;;111.25;14.43;;;6.60;99.90;;;;;;4987402;28;20026;-87
2022/11/18 04:30:30;;;;;;;61.90;12.70;;;6.60;99.90;;;;;;4988445;28;20038;-87
2022/11/18 04:33:27;;;;;;;22.33;10.23;;;6.60;99.90;;;;;;4987335;28;20510;-88
2022/11/18 04:35:53;;;;;;;45.45;12.10;;;6.60;99.90;;;;;;4985415;28;20118;-87
2022/11/18 04:38:18;;;;;;;25.70;12.25;;;6.60;99.90;;;;;;4991382;28;20062;-88
2022/11/18 04:40:45;;;;;;;34.40;10.13;;;6.60;99.90;;;;;;4986627;28;20030;-88
2022/11/18 04:43:11;;;;;;;51.38;9.65;;;6.60;99.90;;;;;;4985606;28;20399;-88
2022/11/18 04:45:36;;;;;;;39.05;9.90;;;6.60;99.90;;;;;;4991036;28;20031;-87
2022/11/18 04:48:02;;;;;;;42.28;9.38;;;6.60;99.90;;;;;;4968818;28;20105;-87
2022/11/18 04:50:28;;;;;;;31.90;10.65;;;6.60;99.90;;;;;;4991378;28;20034;-88
2022/11/18 04:52:53;;;;;;;10.63;4.40;;;6.60;99.90;;;;;;4984810;28;20030;-87
2022/11/18 04:55:19;;;;;;;6.45;3.22;;;6.60;99.90;;;;;;5006553;28;20034;-88
2022/11/18 04:57:45;;;;;;;9.75;4.75;;;6.50;99.90;;;;;;5002772;28;20029;-87
2022/11/18 05:00:11;;;;;;;2.83;2.08;;;6.50;99.90;;;;;;4963414;28;20062;-87
2022/11/18 05:02:36;;;;;;;6.35;2.80;;;6.50;99.90;;;;;;4977598;28;20035;-87
2022/11/18 05:05:02;;;;;;;2.92;2.03;;;6.50;99.90;;;;;;5003549;28;20097;-88
2022/11/18 05:07:28;;;;;;;5.07;2.45;;;6.40;99.90;;;;;;4990940;28;20041;-86
2022/11/18 05:09:54;;;;;;;6.43;2.15;;;6.40;99.90;;;;;;4968147;28;20054;-86
2022/11/18 05:15:04;;;;;;;12.18;3.45;;;6.30;99.90;;;;;;4985003;28;20027;-86
2022/11/18 05:18:13;;;;;;;7.00;2.00;;;6.30;99.90;;;;;;4983603;28;20115;-86
2022/11/18 05:20:39;;;;;;;21.20;6.57;;;6.30;99.90;;;;;;4990413;28;20453;-87
2022/11/18 05:23:05;;;;;;;17.92;6.20;;;6.20;99.90;;;;;;5013894;28;20068;-86
2022/11/18 05:25:55;;;;;;;6.60;3.25;;;6.20;99.90;;;;;;4971100;28;20117;-86
2022/11/18 05:28:21;;;;;;;9.13;2.93;;;6.20;99.90;;;;;;5000003;28;20040;-85
2022/11/18 05:30:47;;;;;;;3.58;2.60;;;6.20;99.90;;;;;;4968639;28;20034;-86
2022/11/18 05:33:12;;;;;;;5.38;2.70;;;6.20;99.90;;;;;;4987505;28;20030;-85
2022/11/18 05:35:38;;;;;;;5.43;1.88;;;6.20;99.90;;;;;;4969662;28;20489;-86
2022/11/18 05:38:04;;;;;;;8.57;2.50;;;6.20;99.90;;;;;;4970391;28;20080;-85
2022/11/18 05:40:29;;;;;;;7.63;3.20;;;6.20;99.90;;;;;;4969804;28;20051;-85
2022/11/18 05:43:10;;;;;;;12.45;4.82;;;6.20;99.90;;;;;;4982036;28;20027;-85
2022/11/18 05:45:40;;;;;;;11.82;4.38;;;6.20;99.90;;;;;;4988056;28;20095;-85
2022/11/18 05:48:06;;;;;;;7.57;5.47;;;6.30;99.90;;;;;;4981901;28;20034;-86
2022/11/18 05:50:37;;;;;;;8.10;4.35;;;6.30;99.90;;;;;;4989795;28;20034;-85
2022/11/18 05:53:43;;;;;;;5.65;3.72;;;6.30;99.90;;;;;;4981640;28;20031;-85
2022/11/18 05:56:18;;;;;;;5.78;2.40;;;6.30;99.90;;;;;;4992793;28;20031;-86
2022/11/18 05:58:53;;;;;;;9.15;3.10;;;6.30;99.90;;;;;;4984233;28;20516;-86
2022/11/18 06:01:24;;;;;;;5.85;2.53;;;6.30;99.90;;;;;;4968622;28;20026;-86
2022/11/18 06:03:54;;;;;;;8.45;4.13;;;6.30;99.90;;;;;;5000968;28;20382;-86
2022/11/18 06:07:06;;;;;;;7.65;3.22;;;6.30;99.90;;;;;;4968991;28;20042;-87
2022/11/18 06:09:36;;;;;;;12.15;4.10;;;6.30;99.90;;;;;;5001146;28;20078;-86
2022/11/18 06:12:03;;;;;;;7.78;3.15;;;6.30;99.90;;;;;;4969772;28;20034;-87
2022/11/18 06:14:39;;;;;;;15.30;3.08;;;6.20;99.90;;;;;;4970077;28;20030;-86
2022/11/18 06:17:10;;;;;;;6.32;3.38;;;6.20;99.90;;;;;;4968359;28;20034;-86
2022/11/18 06:19:36;;;;;;;11.52;3.30;;;6.30;99.90;;;;;;5004576;28;20462;-86
2022/11/18 06:22:03;;;;;;;7.28;5.10;;;6.20;99.90;;;;;;4982645;28;20042;-86
2022/11/18 06:24:29;;;;;;;6.90;2.95;;;6.20;99.90;;;;;;4983146;28;20058;-86
2022/11/18 06:26:55;;;;;;;7.80;3.60;;;6.20;99.90;;;;;;4986822;28;20026;-86
2022/11/18 06:29:21;;;;;;;16.15;8.65;;;6.10;99.90;;;;;;5002802;28;20097;-87
2022/11/18 06:31:46;;;;;;;9.80;5.35;;;6.10;99.90;;;;;;4989703;28;20131;-86
2022/11/18 06:34:12;;;;;;;10.23;5.93;;;6.10;99.90;;;;;;4990724;28;20059;-87
2022/11/18 06:36:38;;;;;;;6.85;3.00;;;6.20;99.90;;;;;;4976972;28;20038;-86
2022/11/18 06:39:05;;;;;;;6.22;3.55;;;6.10;99.90;;;;;;4972663;28;20026;-87
2022/11/18 06:41:32;;;;;;;10.68;5.00;;;6.10;99.90;;;;;;4962698;28;20035;-89
2022/11/18 06:43:58;;;;;;;8.82;5.32;;;6.10;99.90;;;;;;4969503;28;20018;-88
2022/11/18 06:49:08;;;;;;;8.82;5.55;;;6.10;99.90;;;;;;4998906;28;20065;-88
2022/11/18 06:51:33;;;;;;;15.45;9.60;;;6.10;99.90;;;;;;4986350;28;20027;-88
2022/11/18 06:53:59;;;;;;;10.57;5.75;;;6.10;99.90;;;;;;4972651;28;20026;-88
2022/11/18 06:56:25;;;;;;;6.07;4.53;;;6.10;99.90;;;;;;4973082;28;20161;-88
2022/11/18 06:58:56;;;;;;;9.48;4.65;;;6.10;99.90;;;;;;4988993;28;20066;-87
2022/11/18 07:01:23;;;;;;;;;;;6.10;99.90;;;;;;4970804;28;20034;-88
2022/11/18 07:03:50;;;;;;;26.35;14.45;;;6.00;99.90;;;;;;5020593;28;20008;-88
2022/11/18 07:06:18;;;;;;;6.13;4.07;;;6.00;99.90;;;;;;4988538;28;20504;-88
2022/11/18 07:08:45;;;;;;;6.57;4.15;;;6.10;99.90;;;;;;4987565;28;20030;-88
2022/11/18 07:11:13;;;;;;;9.27;3.55;;;6.00;99.90;;;;;;4966782;28;20129;-87
2022/11/18 07:13:40;;;;;;;7.00;4.07;;;6.00;99.90;;;;;;4990185;28;20811;-87
2022/11/18 07:16:09;;;;;;;5.50;3.47;;;6.00;99.90;;;;;;4985969;28;20653;-87
2022/11/18 07:22:22;;;;;;;12.65;7.03;;;5.90;99.90;;;;;;4967659;28;20812;-89
2022/11/18 07:24:47;;;;;;;11.13;6.03;;;5.90;99.90;;;;;;4981423;28;20039;-89
2022/11/18 07:27:13;;;;;;;14.43;7.93;;;5.90;99.90;;;;;;4972255;28;20030;-88
2022/11/18 07:29:39;;;;;;;13.95;6.90;;;5.90;99.90;;;;;;4984112;28;20073;-87
2022/11/18 07:32:05;;;;;;;12.57;7.38;;;5.80;99.90;;;;;;5004749;28;20466;-88
2022/11/18 07:34:31;;;;;;;26.77;12.60;;;5.80;99.90;;;;;;4970608;28;20027;-87
2022/11/18 07:36:57;;;;;;;20.27;9.57;;;5.80;99.90;;;;;;4974875;28;20035;-89
2022/11/18 07:39:23;;;;;;;8.48;4.85;;;5.80;99.90;;;;;;4972774;28;20038;-88
2022/11/18 07:41:48;;;;;;;7.13;5.07;;;5.80;99.90;;;;;;4986897;28;20611;-87
2022/11/18 07:44:16;;;;;;;8.70;4.72;;;5.80;99.90;;;;;;5004266;28;20042;-87
2022/11/18 07:46:43;;;;;;;8.90;4.68;;;5.80;99.90;;;;;;5003040;28;20489;-87
2022/11/18 07:49:10;;;;;;;9.32;6.10;;;5.80;99.90;;;;;;4964432;28;20039;-87
2022/11/18 07:51:38;;;;;;;6.03;3.95;;;5.80;99.90;;;;;;4998959;28;20038;-87
2022/11/18 07:54:06;;;;;;;6.97;4.22;;;5.80;99.90;;;;;;4974608;28;20031;-87
2022/11/18 07:56:32;;;;;;;10.02;6.30;;;5.80;99.90;;;;;;4984962;28;20121;-86
2022/11/18 07:58:57;;;;;;;8.80;3.80;;;5.80;99.90;;;;;;5003776;28;20058;-87
2022/11/18 08:01:27;;;;;;;8.70;3.85;;;5.90;99.90;;;;;;5006235;28;20041;-87
2022/11/18 08:03:53;;;;;;;7.03;3.78;;;5.90;99.90;;;;;;4968563;28;20081;-87
2022/11/18 08:06:19;;;;;;;5.60;3.75;;;5.90;99.90;;;;;;4990277;28;20454;-87
2022/11/18 08:08:46;;;;;;;9.38;4.68;;;5.90;99.90;;;;;;4963179;28;20085;-88
2022/11/18 08:11:16;;;;;;;12.55;4.20;;;5.90;99.90;;;;;;4961087;28;20046;-87
2022/11/18 08:13:41;;;;;;;5.85;3.80;;;5.80;99.90;;;;;;4998416;28;20061;-87
2022/11/18 08:16:32;;;;;;;7.85;3.88;;;5.80;99.90;;;;;;4987097;28;20026;-87
2022/11/18 08:18:59;;;;;;;6.97;4.30;;;5.80;99.90;;;;;;4982808;28;20022;-87
2022/11/18 08:21:25;;;;;;;9.55;4.20;;;5.80;99.90;;;;;;4984237;28;20498;-87
2022/11/18 08:23:57;;;;;;;5.57;4.25;;;5.80;99.90;;;;;;5004202;28;20118;-87
2022/11/18 08:26:23;;;;;;;6.53;4.53;;;5.80;99.90;;;;;;4979731;28;20069;-87
2022/11/18 08:28:49;;;;;;;12.40;4.97;;;5.80;99.90;;;;;;4971366;28;20022;-87
2022/11/18 08:35:03;;;;;;;8.48;5.43;;;5.80;99.90;;;;;;4983359;28;20112;-87
2022/11/18 08:37:29;;;;;;;13.23;5.15;;;5.90;99.90;;;;;;4988014;28;20065;-88
2022/11/18 08:39:55;;;;;;;9.98;5.38;;;5.90;99.90;;;;;;4983877;28;20514;-88
2022/11/18 08:42:21;;;;;;;10.85;6.57;;;5.90;99.90;;;;;;4981786;28;20491;-86
2022/11/18 08:44:47;;;;;;;11.65;6.65;;;5.90;99.90;;;;;;4968193;28;20165;-87
2022/11/18 08:47:13;;;;;;;11.70;8.02;;;6.00;99.90;;;;;;5002017;28;20482;-88
2022/11/18 08:49:39;;;;;;;11.38;7.82;;;6.00;99.90;;;;;;4983564;28;20022;-88
2022/11/18 08:52:04;;;;;;;14.60;7.90;;;6.00;99.90;;;;;;4970822;28;20033;-88
2022/11/18 08:54:30;;;;;;;17.92;9.57;;;6.00;99.90;;;;;;4968624;28;20500;-87
2022/11/18 08:56:56;;;;;;;13.68;8.35;;;6.00;99.90;;;;;;4979332;28;20088;-88
2022/11/18 08:59:22;;;;;;;16.30;8.30;;;6.00;99.90;;;;;;4982217;28;20037;-87
2022/11/18 09:01:47;;;;;;;15.63;9.15;;;6.00;99.90;;;;;;4977617;28;20062;-88
2022/11/18 09:04:13;;;;;;;14.13;8.93;;;6.10;99.90;;;;;;4970774;28;20042;-88
2022/11/18 09:06:39;;;;;;;10.82;7.18;;;6.10;99.90;;;;;;4983917;28;20042;-88
2022/11/18 09:09:06;;;;;;;9.20;7.00;;;6.10;99.90;;;;;;4930628;28;1210621;-88
2022/11/18 09:11:31;;;;;;;10.77;5.72;;;6.10;99.90;;;;;;4983035;28;20270;-89
2022/11/18 09:13:59;;;;;;;13.25;7.95;;;6.00;99.90;;;;;;4987557;28;20034;-88
2022/11/18 09:16:26;;;;;;;9.32;5.95;;;6.10;99.90;;;;;;4967537;28;20078;-88
2022/11/18 09:18:54;;;;;;;9.15;4.90;;;6.10;99.90;;;;;;4985905;28;20034;-87
2022/11/18 09:21:20;;;;;;;7.50;4.93;;;6.10;99.90;;;;;;5002739;28;20086;-87
2022/11/18 09:23:45;;;;;;;4.32;3.40;;;6.00;99.90;;;;;;4987510;28;20069;-88
2022/11/18 09:26:14;;;;;;;5.82;3.92;;;6.00;99.90;;;;;;4982559;28;20038;-87
2022/11/18 09:28:39;;;;;;;5.60;3.88;;;6.10;99.90;;;;;;4987749;28;20034;-88
2022/11/18 09:31:11;;;;;;;7.53;4.80;;;6.10;99.90;;;;;;4982447;28;20118;-88
2022/11/18 09:33:37;;;;;;;5.25;3.88;;;6.10;99.90;;;;;;4989221;28;20034;-88
2022/11/18 09:36:09;;;;;;;5.93;4.10;;;6.20;99.90;;;;;;4966630;28;20049;-87
2022/11/18 09:42:37;;;;;;;7.35;5.25;;;6.20;99.90;;;;;;4982054;28;20041;-88
2022/11/18 09:45:11;;;;;;;8.43;5.95;;;6.20;99.90;;;;;;4978316;28;20034;-88
2022/11/18 09:47:37;;;;;;;24.35;11.80;;;6.10;99.90;;;;;;4986259;28;20117;-88
2022/11/18 09:50:12;;;;;;;10.95;5.88;;;6.10;99.90;;;;;;4985456;28;20100;-88
2022/11/18 09:53:14;;;;;;;12.80;7.78;;;6.10;99.90;;;;;;4982543;28;20603;-88
2022/11/18 09:55:40;;;;;;;40.25;13.80;;;6.10;99.90;;;;;;4997938;28;20057;-87
2022/11/18 09:58:21;;;;;;;23.98;12.52;;;6.20;99.90;;;;;;4985495;28;20027;-88
2022/11/18 10:00:47;;;;;;;6.70;5.13;;;6.20;99.90;;;;;;4985113;28;20490;-88
2022/11/18 10:03:29;;;;;;;38.90;22.45;;;6.20;99.90;;;;;;5003859;28;20042;-88
2022/11/18 10:06:05;;;;;;;16.77;10.00;;;6.30;99.90;;;;;;4985751;28;20034;-88
2022/11/18 10:09:05;;;;;;;17.25;8.18;;;6.30;99.90;;;;;;4987070;28;20038;-88
2022/11/18 10:11:40;;;;;;;16.95;11.15;;;6.30;99.90;;;;;;5001989;28;20038;-88
2022/11/18 10:14:14;;;;;;;11.73;6.30;;;6.30;99.90;;;;;;4979272;28;20720;-88
2022/11/18 10:16:46;;;;;;;11.75;7.07;;;6.30;99.90;;;;;;4984860;28;20036;-88
2022/11/18 10:19:20;;;;;;;9.07;5.50;;;6.30;99.90;;;;;;4997202;28;20121;-88
2022/11/18 10:21:58;;;;;;;10.55;7.75;;;6.30;99.90;;;;;;5000537;28;20038;-87
2022/11/18 10:24:52;;;;;;;20.67;9.68;;;6.20;99.90;;;;;;4997414;28;20105;-87
2022/11/18 10:27:18;;;;;;;18.42;8.90;;;6.30;99.90;;;;;;4991383;28;20054;-88
2022/11/18 10:29:51;;;;;;;16.27;8.90;;;6.20;99.90;;;;;;4984376;28;20022;-88
2022/11/18 10:32:18;;;;;;;14.38;8.40;;;6.20;99.90;;;;;;4987194;28;20059;-88
2022/11/18 10:34:51;;;;;;;28.65;12.90;;;6.30;99.90;;;;;;4984216;28;20058;-89
2022/11/18 10:37:26;;;;;;;15.65;6.72;;;6.20;99.90;;;;;;4976747;28;20031;-89
2022/11/18 10:40:24;;;;;;;14.02;8.10;;;6.30;99.90;;;;;;4990835;28;20034;-88
2022/11/18 10:43:31;;;;;;;15.82;9.27;;;6.30;99.90;;;;;;4974098;28;20045;-89
2022/11/18 10:46:14;;;;;;;15.45;8.27;;;6.40;99.90;;;;;;4966835;28;20050;-88
2022/11/18 10:48:40;;;;;;;15.10;9.18;;;6.40;99.90;;;;;;4978124;28;20045;-89
2022/11/18 10:51:21;;;;;;;15.90;9.18;;;6.40;99.90;;;;;;4989953;28;20034;-89
2022/11/18 10:53:47;;;;;;;13.32;8.18;;;6.40;99.90;;;;;;4957199;28;20044;-89
2022/11/18 10:56:14;;;;;;;16.30;9.07;;;6.40;99.90;;;;;;4973817;28;20058;-88
2022/11/18 10:58:44;;;;;;;17.77;10.35;;;6.50;99.90;;;;;;4984809;28;20028;-88
2022/11/18 11:01:22;;;;;;;17.23;9.70;;;6.40;99.90;;;;;;4970650;28;20028;-88
2022/11/18 11:04:21;;;;;;;18.60;11.82;;;6.40;99.90;;;;;;4988327;28;20043;-89
2022/11/18 11:06:47;;;;;;;32.70;19.63;;;6.40;99.90;;;;;;4988269;28;20035;-88
2022/11/18 11:09:13;;;;;;;19.02;9.10;;;6.50;99.90;;;;;;4973171;28;20053;-85
2022/11/18 11:12:00;;;;;;;15.50;9.48;;;6.50;99.90;;;;;;4972056;28;20208;-88
2022/11/18 11:14:45;;;;;;;28.70;15.13;;;6.40;99.90;;;;;;4956777;28;20505;-88
2022/11/18 11:17:25;;;;;;;36.28;19.20;;;6.40;99.90;;;;;;4957175;28;20102;-87
2022/11/18 11:20:26;;;;;;;22.20;12.15;;;6.40;99.90;;;;;;4971222;28;20038;-88
2022/11/18 11:27:09;;;;;;;19.80;12.18;;;6.50;99.90;;;;;;4975885;28;20164;-88
2022/11/18 11:30:03;;;;;;;32.85;17.08;;;6.60;99.90;;;;;;4975441;28;20028;-89
2022/11/18 11:32:51;;;;;;;21.33;12.93;;;6.60;99.90;;;;;;4962830;28;20066;-88
2022/11/18 11:35:33;;;;;;;22.85;13.63;;;6.50;99.90;;;;;;4973408;28;20069;-88
2022/11/18 11:38:05;;;;;;;23.95;12.35;;;6.60;99.90;;;;;;4970951;28;20061;-89
2022/11/18 11:41:02;;;;;;;33.25;20.95;;;6.70;99.90;;;;;;4977780;28;20035;-88
2022/11/18 11:44:07;;;;;;;22.80;13.57;;;6.60;99.90;;;;;;4991472;28;20047;-88
2022/11/18 11:54:35;;;;;;;15.32;10.35;;;6.90;99.90;;;;;;4979400;28;20390;-88
2022/11/18 11:57:45;;;;;;;24.05;13.75;;;7.00;99.90;;;;;;5002855;28;20022;-89
2022/11/18 12:00:16;;;;;;;23.80;13.15;;;6.90;99.90;;;;;;4998272;28;20034;-88
2022/11/18 12:06:29;;;;;;;27.23;16.48;;;6.80;99.90;;;;;;4970461;28;20597;-88
2022/11/18 12:09:16;;;;;;;17.40;11.30;;;6.90;99.90;;;;;;4991870;28;20027;-87
2022/11/18 12:15:35;;;;;;;19.77;10.40;;;6.80;99.90;;;;;;4994679;28;20027;-88
2022/11/18 12:18:40;;;;;;;23.33;12.23;;;6.80;99.90;;;;;;4974126;28;20780;-88
2022/11/18 12:21:06;;;;;;;19.50;11.85;;;6.80;99.90;;;;;;4986800;28;20015;-88
2022/11/18 12:23:33;;;;;;;21.27;13.43;;;6.90;99.90;;;;;;4988573;28;20544;-89
2022/11/18 12:26:54;;;;;;;25.15;12.77;;;6.90;99.90;;;;;;4983712;28;20062;-88
2022/11/18 12:29:22;;;;;;;22.55;13.98;;;7.00;99.90;;;;;;4981122;28;20033;-89
2022/11/18 12:31:53;;;;;;;20.75;14.00;;;7.00;99.90;;;;;;4986200;28;20038;-89
2022/11/18 12:34:25;;;;;;;26.02;15.48;;;7.10;99.90;;;;;;5020134;28;20422;-89
2022/11/18 12:36:52;;;;;;;16.90;11.18;;;7.10;99.90;;;;;;4986562;28;20035;-89
2022/11/18 12:39:24;;;;;;;16.00;11.98;;;7.20;99.90;;;;;;4985632;28;20694;-89
2022/11/18 12:44:42;;;;;;;20.20;12.70;;;7.30;99.90;;;;;;5001529;28;20022;-89
2022/11/18 12:51:14;;;;;;;26.77;13.80;;;7.20;99.90;;;;;;4991518;28;20026;-89
2022/11/18 12:53:40;;;;;;;27.42;13.25;;;7.20;99.90;;;;;;4999106;28;20043;-89
2022/11/18 12:56:26;;;;;;;58.55;30.55;;;7.10;99.90;;;;;;4986746;28;20091;-89
2022/11/18 12:58:54;;;;;;;45.08;20.42;;;7.00;99.90;;;;;;5000132;28;20108;-89
2022/11/18 13:01:23;;;;;;;42.05;21.05;;;6.90;99.90;;;;;;4974696;28;20857;-89
2022/11/18 13:03:49;;;;;;;27.02;16.83;;;6.90;99.90;;;;;;4983370;28;20771;-89
2022/11/18 13:06:25;;;;;;;36.95;17.75;;;6.90;99.90;;;;;;4975626;28;20122;-89
2022/11/18 13:08:58;;;;;;;23.95;14.90;;;6.90;99.90;;;;;;4975696;28;20050;-88
2022/11/18 13:17:51;;;;;;;26.85;16.52;;;6.80;99.90;;;;;;4975412;28;20042;-90
2022/11/18 13:20:30;;;;;;;16.02;9.38;;;6.80;99.90;;;;;;4978378;28;20041;-90
2022/11/18 13:26:24;;;;;;;18.05;10.98;;;6.80;99.90;;;;;;4984600;28;20118;-88
2022/11/18 13:29:14;;;;;;;19.77;11.68;;;6.70;99.90;;;;;;4977203;28;20081;-89
2022/11/18 13:31:58;;;;;;;23.63;10.55;;;6.70;99.90;;;;;;4998130;28;20038;-89
2022/11/18 13:34:26;;;;;;;19.95;9.90;;;6.70;99.90;;;;;;4971524;28;20031;-89
2022/11/18 13:36:54;;;;;;;16.25;10.55;;;6.70;99.90;;;;;;4973329;28;20117;-88
2022/11/18 13:39:30;;;;;;;20.50;10.18;;;6.70;99.90;;;;;;4973932;28;20438;-88
2022/11/18 13:42:03;;;;;;;13.98;8.48;;;6.70;99.90;;;;;;4987236;28;20130;-88
2022/11/18 13:44:32;;;;;;;23.70;12.10;;;6.70;99.90;;;;;;4960179;28;20067;-88
2022/11/18 13:47:23;;;;;;;21.85;12.52;;;6.60;99.90;;;;;;4991310;28;20027;-89
2022/11/18 13:50:10;;;;;;;17.60;11.93;;;6.70;99.90;;;;;;4986672;28;20027;-90
2022/11/18 13:52:43;;;;;;;19.88;12.60;;;6.70;99.90;;;;;;4987879;28;20066;-90
2022/11/18 13:55:19;;;;;;;18.60;12.38;;;6.90;99.90;;;;;;4972292;28;20305;-89
2022/11/18 13:58:16;;;;;;;18.17;11.20;;;6.90;99.90;;;;;;4993766;28;20109;-89
2022/11/18 14:00:42;;;;;;;14.98;10.05;;;6.80;99.90;;;;;;4972906;28;20073;-89
2022/11/18 14:03:30;;;;;;;15.60;8.82;;;6.80;99.90;;;;;;4971387;28;20043;-87
2022/11/18 14:05:56;;;;;;;8.82;3.63;;;6.70;99.90;;;;;;4989582;28;20030;-88
2022/11/18 14:08:30;;;;;;;4.00;2.20;;;6.30;99.90;;;;;;4980843;28;20042;-88
2022/11/18 14:10:57;;;;;;;5.43;4.03;;;5.90;99.90;;;;;;4987049;28;20030;-88
2022/11/18 14:13:29;;;;;;;4.95;2.55;;;5.70;99.90;;;;;;4963276;28;20046;-88
2022/11/18 14:16:00;;;;;;;4.55;2.53;;;5.70;99.90;;;;;;4991843;28;20030;-90